Time;durP1;ratioP1;P1;durP2;ratioP2;P2;SDS_P1;SDS_P2;PMS_P1;PMS_P2;Temp;Humidity;BMP_temperature;BMP_pressure;BME280_temperature;BME280_humidity;BME280_pressure;Samples;Min_cycle;Max_cycle;Signal;HPM_P1;HPM_P2
2023/11/20 00:02:01;;;;;;;7.17;7.07;;;11.30;99.90;;;;;;5082544;28;20463;-70
2023/11/20 00:04:29;;;;;;;7.57;7.47;;;11.30;99.90;;;;;;5086663;28;20528;-70
2023/11/20 00:06:57;;;;;;;6.87;6.77;;;11.40;99.90;;;;;;5083955;28;20474;-70
2023/11/20 00:09:24;;;;;;;7.13;7.03;;;11.30;99.90;;;;;;5078022;28;20451;-72
2023/11/20 00:11:50;;;;;;;6.40;6.30;;;11.40;99.90;;;;;;5082860;28;20450;-70
2023/11/20 00:14:17;;;;;;;6.33;6.23;;;11.40;99.90;;;;;;5085894;28;20451;-70
2023/11/20 00:16:44;;;;;;;6.37;6.27;;;11.30;99.90;;;;;;5077412;28;20984;-69
2023/11/20 00:19:12;;;;;;;5.93;5.83;;;11.40;99.90;;;;;;5088360;28;20466;-70
2023/11/20 00:21:42;;;;;;;6.00;5.90;;;11.30;99.90;;;;;;5082148;28;20450;-70
2023/11/20 00:24:10;;;;;;;5.83;5.73;;;11.40;99.90;;;;;;5080918;28;21021;-70
2023/11/20 00:26:37;;;;;;;5.77;5.67;;;11.30;99.90;;;;;;5083444;28;20470;-72
2023/11/20 00:29:04;;;;;;;5.13;5.13;;;11.30;99.90;;;;;;5084777;28;20455;-72
2023/11/20 00:31:31;;;;;;;4.77;4.77;;;11.20;99.90;;;;;;5088524;28;20963;-69
2023/11/20 00:33:59;;;;;;;4.30;4.30;;;11.20;99.90;;;;;;5083684;28;20490;-70
2023/11/20 00:36:28;;;;;;;4.50;4.50;;;11.10;99.90;;;;;;5087308;28;20569;-72
2023/11/20 00:38:54;;;;;;;4.37;4.37;;;11.10;99.90;;;;;;5087424;28;20462;-70
2023/11/20 00:41:21;;;;;;;4.43;4.43;;;11.10;99.90;;;;;;5081585;28;20466;-72
2023/11/20 00:43:48;;;;;;;5.43;5.33;;;11.10;99.90;;;;;;5072082;28;20451;-70
2023/11/20 00:46:15;;;;;;;8.77;8.67;;;11.10;99.90;;;;;;5088021;28;20834;-69
2023/11/20 00:48:43;;;;;;;10.10;9.90;;;11.00;99.90;;;;;;5087105;28;20454;-70
2023/11/20 00:51:10;;;;;;;10.20;10.00;;;10.90;99.90;;;;;;5083206;28;20467;-71
2023/11/20 00:53:40;;;;;;;9.97;9.77;;;10.90;99.90;;;;;;5087796;28;20454;-71
2023/11/20 00:56:08;;;;;;;9.97;9.77;;;10.80;99.90;;;;;;5072744;28;20493;-70
2023/11/20 00:58:35;;;;;;;10.30;10.10;;;10.80;99.90;;;;;;5083893;28;20953;-71
2023/11/20 01:01:02;;;;;;;10.00;9.80;;;10.70;99.90;;;;;;5087430;28;20545;-72
2023/11/20 01:03:29;;;;;;;10.13;9.93;;;10.90;99.90;;;;;;5079340;28;20463;-71
2023/11/20 01:05:56;;;;;;;10.07;9.87;;;10.80;99.90;;;;;;5086290;28;20545;-72
2023/11/20 01:08:24;;;;;;;10.53;10.33;;;10.80;99.90;;;;;;5081462;28;20625;-70
2023/11/20 01:10:52;;;;;;;9.93;9.73;;;10.80;99.90;;;;;;5092311;28;20455;-72
2023/11/20 01:13:19;;;;;;;9.73;9.53;;;10.80;99.90;;;;;;5081444;28;21009;-70
2023/11/20 01:15:47;;;;;;;9.50;9.30;;;10.80;99.90;;;;;;5076949;28;20491;-72
2023/11/20 01:18:14;;;;;;;9.70;9.50;;;10.70;99.90;;;;;;5085412;28;20862;-72
2023/11/20 01:20:41;;;;;;;9.07;8.87;;;10.70;99.90;;;;;;5079828;28;20482;-71
2023/11/20 01:23:08;;;;;;;9.37;9.17;;;10.70;99.90;;;;;;5087053;28;20813;-70
2023/11/20 01:25:35;;;;;;;9.27;9.07;;;10.70;99.90;;;;;;5082786;28;21132;-72
2023/11/20 01:28:03;;;;;;;9.40;9.20;;;10.70;99.90;;;;;;5087089;28;20946;-72
2023/11/20 01:30:30;;;;;;;8.77;8.67;;;10.60;99.90;;;;;;5078829;28;20834;-72
2023/11/20 01:32:57;;;;;;;9.27;9.07;;;10.50;99.90;;;;;;5087261;28;20462;-71
2023/11/20 01:35:24;;;;;;;9.37;9.17;;;10.50;99.90;;;;;;5085291;28;20470;-72
2023/11/20 01:37:51;;;;;;;8.80;8.70;;;10.40;99.90;;;;;;5079106;28;20469;-71
2023/11/20 01:40:19;;;;;;;8.73;8.63;;;10.40;99.90;;;;;;5088327;28;20451;-71
2023/11/20 01:42:46;;;;;;;8.80;8.70;;;10.40;99.90;;;;;;5087197;28;20976;-70
2023/11/20 01:45:14;;;;;;;9.00;8.80;;;10.40;99.90;;;;;;5083059;28;20550;-72
2023/11/20 01:47:41;;;;;;;8.50;8.40;;;10.50;99.90;;;;;;5087393;28;20453;-70
2023/11/20 01:50:11;;;;;;;8.50;8.40;;;10.50;99.90;;;;;;5073904;28;20671;-72
2023/11/20 01:52:42;;;;;;;8.57;8.47;;;10.60;99.90;;;;;;5081792;28;20467;-71
2023/11/20 01:55:10;;;;;;;8.40;8.30;;;10.60;99.90;;;;;;5074547;28;21033;-72
2023/11/20 01:57:40;;;;;;;8.93;8.73;;;10.60;99.90;;;;;;5086401;28;21062;-70
2023/11/20 02:00:09;;;;;;;9.20;9.00;;;10.60;99.90;;;;;;5086180;28;20473;-70
2023/11/20 02:02:38;;;;;;;9.43;9.23;;;10.60;99.90;;;;;;5086620;28;21074;-71
2023/11/20 02:05:05;;;;;;;9.10;8.90;;;10.60;99.90;;;;;;5083799;28;20482;-70
2023/11/20 02:07:33;;;;;;;9.50;9.30;;;10.60;99.90;;;;;;5074905;28;20463;-70
2023/11/20 02:10:00;;;;;;;9.20;9.00;;;10.60;99.90;;;;;;5085814;28;20470;-71
2023/11/20 02:12:27;;;;;;;8.57;8.47;;;10.60;99.90;;;;;;5079506;28;20470;-70
2023/11/20 02:14:54;;;;;;;9.07;8.87;;;10.70;99.90;;;;;;5084814;28;20474;-71
2023/11/20 02:17:21;;;;;;;8.70;8.60;;;10.70;99.90;;;;;;5080541;28;20887;-73
2023/11/20 02:19:49;;;;;;;9.20;9.00;;;10.70;99.90;;;;;;5076479;28;20471;-69
2023/11/20 02:22:16;;;;;;;9.13;8.93;;;10.70;99.90;;;;;;5080781;28;20456;-71
2023/11/20 02:24:44;;;;;;;9.50;9.30;;;10.70;99.90;;;;;;5083402;28;20479;-70
2023/11/20 02:27:28;;;;;;;9.20;9.00;;;10.70;99.90;;;;;;5075770;28;20721;-71
2023/11/20 02:29:58;;;;;;;8.97;8.77;;;10.70;99.90;;;;;;5084979;28;20464;-69
2023/11/20 02:32:25;;;;;;;9.10;8.90;;;10.70;99.90;;;;;;5088048;28;20945;-71
2023/11/20 02:34:52;;;;;;;9.03;8.83;;;10.70;99.90;;;;;;5074419;28;20463;-70
2023/11/20 02:37:19;;;;;;;8.73;8.53;;;10.60;99.90;;;;;;5084008;28;20489;-72
2023/11/20 02:39:49;;;;;;;8.20;8.10;;;10.60;99.90;;;;;;5082978;28;20540;-70
2023/11/20 02:42:17;;;;;;;8.40;8.30;;;10.60;99.90;;;;;;5084232;28;20451;-72
2023/11/20 02:44:45;;;;;;;8.37;8.27;;;10.50;99.90;;;;;;5084008;28;20466;-72
2023/11/20 02:47:14;;;;;;;8.70;8.57;;;10.50;99.90;;;;;;5081352;28;20459;-72
2023/11/20 02:49:42;;;;;;;8.90;8.70;;;10.50;99.90;;;;;;5089323;28;20536;-72
2023/11/20 02:52:09;;;;;;;8.50;8.40;;;10.40;99.90;;;;;;5089322;28;20491;-71
2023/11/20 02:54:36;;;;;;;8.30;8.20;;;10.40;99.90;;;;;;5081348;28;20466;-71
2023/11/20 02:57:03;;;;;;;8.10;8.00;;;10.50;99.90;;;;;;5086342;28;21436;-72
2023/11/20 02:59:30;;;;;;;7.33;7.23;;;10.40;99.90;;;;;;5090143;28;20562;-73
2023/11/20 03:01:57;;;;;;;7.70;7.60;;;10.40;99.90;;;;;;5089283;28;20474;-70
2023/11/20 03:04:26;;;;;;;7.37;7.27;;;10.40;99.90;;;;;;5089876;28;20451;-70
2023/11/20 03:06:53;;;;;;;7.60;7.50;;;10.40;99.90;;;;;;5080747;28;20449;-73
2023/11/20 03:09:20;;;;;;;7.10;7.00;;;10.40;99.90;;;;;;5085989;28;20485;-71
2023/11/20 03:11:48;;;;;;;6.70;6.60;;;10.40;99.90;;;;;;5088314;28;20459;-71
2023/11/20 03:14:15;;;;;;;6.33;6.23;;;10.40;99.90;;;;;;5081099;28;20467;-71
2023/11/20 03:16:42;;;;;;;6.33;6.23;;;10.40;99.90;;;;;;5089518;28;20478;-73
2023/11/20 03:19:09;;;;;;;6.20;6.10;;;10.40;99.90;;;;;;5088888;28;20933;-71
2023/11/20 03:21:40;;;;;;;6.07;5.97;;;10.40;99.90;;;;;;5079712;28;20520;-72
2023/11/20 03:24:09;;;;;;;5.53;5.43;;;10.40;99.90;;;;;;5088501;28;20486;-73
2023/11/20 03:26:36;;;;;;;5.77;5.67;;;10.40;99.90;;;;;;5089361;28;20458;-71
2023/11/20 03:29:03;;;;;;;5.40;5.30;;;10.40;99.90;;;;;;5083168;28;20489;-70
2023/11/20 03:31:35;;;;;;;5.10;5.00;;;10.50;99.90;;;;;;5093278;28;20544;-71
2023/11/20 03:34:03;;;;;;;5.00;5.00;;;10.50;99.90;;;;;;5076441;28;20462;-73
2023/11/20 03:36:30;;;;;;;5.13;5.03;;;10.50;99.90;;;;;;5088870;28;20478;-71
2023/11/20 03:38:59;;;;;;;5.10;5.00;;;10.50;99.90;;;;;;5088137;28;20463;-73
2023/11/20 03:41:27;;;;;;;4.50;4.50;;;10.40;99.90;;;;;;5086554;28;20458;-70
2023/11/20 03:43:54;;;;;;;4.23;4.23;;;10.40;99.90;;;;;;5087257;28;20815;-71
2023/11/20 03:46:21;;;;;;;3.70;3.70;;;10.40;99.90;;;;;;5077589;28;20466;-73
2023/11/20 03:48:47;;;;;;;4.00;4.00;;;10.40;99.90;;;;;;5082028;28;21026;-71
2023/11/20 03:51:17;;;;;;;3.80;3.80;;;10.50;99.90;;;;;;5083360;28;20838;-71
2023/11/20 03:53:44;;;;;;;3.87;3.87;;;10.50;99.90;;;;;;5089000;28;20443;-70
2023/11/20 03:56:14;;;;;;;4.10;4.10;;;10.60;99.90;;;;;;5083236;28;20567;-70
2023/11/20 03:58:44;;;;;;;3.73;3.73;;;10.60;99.90;;;;;;5084672;28;20887;-71
2023/11/20 04:01:11;;;;;;;3.70;3.70;;;10.60;99.90;;;;;;5084497;28;20516;-71
2023/11/20 04:03:38;;;;;;;3.30;3.30;;;10.70;99.90;;;;;;5088357;28;20523;-72
2023/11/20 04:06:06;;;;;;;3.47;3.47;;;10.70;99.90;;;;;;5079994;28;20806;-73
2023/11/20 04:08:33;;;;;;;3.50;3.50;;;10.60;99.90;;;;;;5076644;28;20463;-71
2023/11/20 04:11:02;;;;;;;3.57;3.57;;;10.60;99.90;;;;;;5083977;28;20537;-70
2023/11/20 04:13:30;;;;;;;3.57;3.57;;;10.60;99.90;;;;;;5088392;28;20463;-71
2023/11/20 04:15:57;;;;;;;3.23;3.23;;;10.60;99.90;;;;;;5085705;28;20474;-70
2023/11/20 04:18:24;;;;;;;3.57;3.57;;;10.60;99.90;;;;;;5087526;28;20533;-70
2023/11/20 04:20:51;;;;;;;5.60;5.50;;;10.60;99.90;;;;;;5084511;28;20477;-71
2023/11/20 04:23:17;;;;;;;5.93;5.83;;;10.70;99.90;;;;;;5081966;28;20884;-70
2023/11/20 04:25:45;;;;;;;9.17;8.97;;;10.60;99.90;;;;;;5085357;28;20595;-69
2023/11/20 04:28:12;;;;;;;10.00;9.80;;;10.60;99.90;;;;;;5082156;28;20466;-70
2023/11/20 04:30:41;;;;;;;10.50;10.30;;;10.60;99.90;;;;;;5085781;28;20469;-72
2023/11/20 04:33:08;;;;;;;11.30;11.00;;;10.50;99.90;;;;;;5081085;28;20538;-72
2023/11/20 04:35:36;;;;;;;10.97;10.67;;;10.60;99.90;;;;;;5083565;28;20461;-72
2023/11/20 04:38:03;;;;;;;11.07;10.77;;;10.60;99.90;;;;;;5087375;28;21003;-71
2023/11/20 04:40:31;;;;;;;10.80;10.50;;;10.60;99.90;;;;;;5077999;28;20477;-70
2023/11/20 04:42:57;;;;;;;10.97;10.67;;;10.50;99.90;;;;;;5087842;28;20455;-71
2023/11/20 04:45:24;;;;;;;11.17;10.87;;;10.60;99.90;;;;;;5078522;28;20473;-72
2023/11/20 04:47:53;;;;;;;11.53;11.23;;;10.50;99.90;;;;;;5078901;28;20977;-72
2023/11/20 04:50:21;;;;;;;11.67;11.37;;;10.60;99.90;;;;;;5087920;28;20458;-69
2023/11/20 04:52:48;;;;;;;11.40;11.10;;;10.60;99.90;;;;;;5081438;28;20807;-70
2023/11/20 04:55:15;;;;;;;11.23;10.93;;;10.60;99.90;;;;;;5077127;28;20467;-71
2023/11/20 04:57:44;;;;;;;11.20;10.90;;;10.50;99.90;;;;;;5084311;28;20928;-72
2023/11/20 05:00:12;;;;;;;11.20;10.90;;;10.50;99.90;;;;;;5088304;28;20950;-71
2023/11/20 05:02:39;;;;;;;11.83;11.53;;;10.50;99.90;;;;;;5088635;28;20462;-71
2023/11/20 05:05:09;;;;;;;11.80;11.50;;;10.40;99.90;;;;;;5078190;28;20472;-72
2023/11/20 05:07:36;;;;;;;11.50;11.20;;;10.40;99.90;;;;;;5082955;28;20466;-70
2023/11/20 05:10:05;;;;;;;11.60;11.30;;;10.40;99.90;;;;;;5076954;28;20466;-69
2023/11/20 05:12:32;;;;;;;11.43;11.13;;;10.40;99.90;;;;;;5084868;28;20498;-71
2023/11/20 05:14:59;;;;;;;11.60;11.30;;;10.40;99.90;;;;;;5085073;28;20470;-71
2023/11/20 05:17:26;;;;;;;11.37;11.07;;;10.40;99.90;;;;;;5081674;28;20487;-71
2023/11/20 05:19:54;;;;;;;11.57;11.27;;;10.40;99.90;;;;;;5082209;28;20458;-70
2023/11/20 05:22:23;;;;;;;11.17;10.87;;;10.40;99.90;;;;;;5074463;28;20907;-70
2023/11/20 05:24:50;;;;;;;11.33;11.03;;;10.40;99.90;;;;;;5084378;28;20539;-71
2023/11/20 05:27:18;;;;;;;11.20;10.90;;;10.40;99.90;;;;;;5079025;28;20468;-70
2023/11/20 05:29:46;;;;;;;10.77;10.47;;;10.40;99.90;;;;;;5082788;28;20476;-70
2023/11/20 05:32:13;;;;;;;9.93;9.73;;;10.50;99.90;;;;;;5085812;28;20458;-70
2023/11/20 05:34:40;;;;;;;10.23;10.03;;;10.50;99.90;;;;;;5078548;28;20474;-71
2023/11/20 05:37:07;;;;;;;10.00;9.80;;;10.40;99.90;;;;;;5080095;28;20492;-71
2023/11/20 05:39:35;;;;;;;10.30;10.10;;;10.40;99.90;;;;;;5079056;28;20455;-69
2023/11/20 05:42:02;;;;;;;9.97;9.77;;;10.40;99.90;;;;;;5080787;28;20463;-70
2023/11/20 05:44:29;;;;;;;9.90;9.70;;;10.40;99.90;;;;;;5077916;28;20465;-70
2023/11/20 05:46:56;;;;;;;9.50;9.30;;;10.40;99.90;;;;;;5081345;28;20460;-70
2023/11/20 05:49:22;;;;;;;9.53;9.33;;;10.40;99.90;;;;;;5084120;28;20537;-71
2023/11/20 05:51:49;;;;;;;8.87;8.67;;;10.40;99.90;;;;;;5081591;28;20459;-70
2023/11/20 05:54:16;;;;;;;8.30;8.20;;;10.30;99.90;;;;;;5077182;28;20488;-71
2023/11/20 05:56:46;;;;;;;8.40;8.30;;;10.40;99.90;;;;;;5082329;28;20547;-70
2023/11/20 05:59:13;;;;;;;8.10;8.00;;;10.40;99.90;;;;;;5078240;28;20491;-70
2023/11/20 06:01:42;;;;;;;7.80;7.70;;;10.40;99.90;;;;;;5083541;28;20469;-69
2023/11/20 06:04:09;;;;;;;8.00;7.90;;;10.40;99.90;;;;;;5079475;28;20467;-72
2023/11/20 06:06:37;;;;;;;8.20;8.10;;;10.40;99.90;;;;;;5085829;28;20450;-73
2023/11/20 06:09:05;;;;;;;8.33;8.23;;;10.50;99.90;;;;;;5077337;28;21007;-70
2023/11/20 06:11:32;;;;;;;8.27;8.17;;;10.50;99.90;;;;;;5084914;28;20461;-71
2023/11/20 06:14:00;;;;;;;8.27;8.17;;;10.50;99.90;;;;;;5079578;28;20639;-73
2023/11/20 06:16:27;;;;;;;8.20;8.10;;;10.50;99.90;;;;;;5075736;28;20486;-71
2023/11/20 06:18:54;;;;;;;8.30;8.20;;;10.50;99.90;;;;;;5079766;28;20502;-70
2023/11/20 06:21:22;;;;;;;9.37;9.17;;;10.50;99.90;;;;;;5082992;28;20478;-73
2023/11/20 06:23:49;;;;;;;9.30;9.10;;;10.50;99.90;;;;;;5084051;28;20490;-72
2023/11/20 06:26:16;;;;;;;9.10;8.90;;;10.50;99.90;;;;;;5061603;28;20494;-70
2023/11/20 06:28:45;;;;;;;8.20;8.10;;;10.50;99.90;;;;;;5057774;28;20542;-70
2023/11/20 06:31:14;;;;;;;8.37;8.27;;;10.60;99.90;;;;;;5057800;28;20474;-72
2023/11/20 06:33:41;;;;;;;8.73;8.53;;;10.50;99.90;;;;;;5059015;28;21062;-71
2023/11/20 06:36:10;;;;;;;8.30;8.20;;;10.50;99.90;;;;;;5068443;28;20459;-71
2023/11/20 06:38:36;;;;;;;8.10;8.00;;;10.50;99.90;;;;;;5058564;28;20503;-70
2023/11/20 06:41:04;;;;;;;7.83;7.73;;;10.40;99.90;;;;;;5060933;28;20459;-71
2023/11/20 06:43:31;;;;;;;7.70;7.60;;;10.40;99.90;;;;;;5062685;28;20471;-70
2023/11/20 06:45:59;;;;;;;7.83;7.73;;;10.40;99.90;;;;;;5068680;28;20871;-69
2023/11/20 06:48:27;;;;;;;7.80;7.70;;;10.40;99.90;;;;;;5055565;28;20473;-71
2023/11/20 06:50:54;;;;;;;8.00;7.90;;;10.40;99.90;;;;;;5061651;28;20459;-73
2023/11/20 06:53:24;;;;;;;7.97;7.87;;;10.40;99.90;;;;;;5065050;28;20475;-69
2023/11/20 06:55:52;;;;;;;8.20;8.10;;;10.40;99.90;;;;;;5053882;28;20464;-70
2023/11/20 06:58:19;;;;;;;7.77;7.67;;;10.40;99.90;;;;;;5064739;28;20502;-71
2023/11/20 07:00:46;;;;;;;7.47;7.37;;;10.50;99.90;;;;;;5064291;28;20467;-70
2023/11/20 07:03:13;;;;;;;7.83;7.73;;;10.50;99.90;;;;;;5056494;28;20510;-70
2023/11/20 07:05:41;;;;;;;7.53;7.43;;;10.50;99.90;;;;;;5064821;28;20459;-72
2023/11/20 07:08:10;;;;;;;7.60;7.50;;;10.50;99.90;;;;;;5055824;28;20476;-70
2023/11/20 07:10:37;;;;;;;7.63;7.53;;;10.60;99.90;;;;;;5061651;28;20975;-71
2023/11/20 07:13:04;;;;;;;7.83;7.73;;;10.50;99.90;;;;;;5064487;28;21018;-72
2023/11/20 07:15:32;;;;;;;8.27;8.17;;;10.60;99.90;;;;;;5054414;28;20549;-70
2023/11/20 07:17:59;;;;;;;7.90;7.80;;;10.60;99.90;;;;;;5059706;28;21223;-70
2023/11/20 07:20:27;;;;;;;8.60;8.50;;;10.60;99.90;;;;;;5052634;28;20970;-70
2023/11/20 07:22:58;;;;;;;8.57;8.47;;;10.60;99.90;;;;;;5054874;28;20492;-71
2023/11/20 07:25:25;;;;;;;8.43;8.33;;;10.70;99.90;;;;;;5074740;28;20510;-71
2023/11/20 07:27:52;;;;;;;8.00;7.90;;;10.60;99.90;;;;;;5080173;28;21051;-70
2023/11/20 07:30:19;;;;;;;8.23;8.13;;;10.70;99.90;;;;;;5084648;28;20469;-71
2023/11/20 07:32:46;;;;;;;7.93;7.83;;;10.60;99.90;;;;;;5082327;28;20799;-70
2023/11/20 07:35:13;;;;;;;8.27;8.17;;;10.60;99.90;;;;;;5078935;28;20462;-69
2023/11/20 07:37:41;;;;;;;8.43;8.33;;;10.60;99.90;;;;;;5086874;28;20554;-70
2023/11/20 07:40:11;;;;;;;8.10;8.00;;;10.60;99.90;;;;;;5084889;28;20545;-72
2023/11/20 07:42:38;;;;;;;8.13;8.03;;;10.60;99.90;;;;;;5082208;28;20881;-70
2023/11/20 07:45:06;;;;;;;8.00;7.90;;;10.50;99.90;;;;;;5083785;28;20466;-69
2023/11/20 07:47:33;;;;;;;8.30;8.20;;;10.50;99.90;;;;;;5085364;28;20478;-70
2023/11/20 07:49:59;;;;;;;8.03;7.93;;;10.50;99.90;;;;;;5087940;28;20451;-71
2023/11/20 07:52:26;;;;;;;8.30;8.20;;;10.40;99.90;;;;;;5078433;28;20819;-72
2023/11/20 07:54:53;;;;;;;8.20;8.10;;;10.40;99.90;;;;;;5079276;28;20473;-70
2023/11/20 07:57:21;;;;;;;7.83;7.73;;;10.30;99.90;;;;;;5082777;28;20463;-72
2023/11/20 07:59:50;;;;;;;7.77;7.67;;;10.30;99.90;;;;;;5085435;28;20608;-73
2023/11/20 08:02:17;;;;;;;7.03;6.93;;;10.30;99.90;;;;;;5084495;28;20881;-70
2023/11/20 08:04:44;;;;;;;6.70;6.60;;;10.30;99.90;;;;;;5082248;28;20806;-69
2023/11/20 08:07:11;;;;;;;7.30;7.20;;;10.20;99.90;;;;;;5086250;28;20470;-70
2023/11/20 08:09:38;;;;;;;7.30;7.20;;;10.30;99.90;;;;;;5083789;28;20459;-73
2023/11/20 08:12:07;;;;;;;6.90;6.80;;;10.30;99.90;;;;;;5087783;28;21066;-73
2023/11/20 08:14:35;;;;;;;6.63;6.53;;;10.40;99.90;;;;;;5079766;28;20465;-72
2023/11/20 08:17:03;;;;;;;7.20;7.10;;;10.40;99.90;;;;;;5080336;28;20459;-73
2023/11/20 08:19:30;;;;;;;7.10;7.00;;;10.50;99.90;;;;;;5078243;28;21044;-73
2023/11/20 08:21:58;;;;;;;7.50;7.40;;;10.60;99.90;;;;;;5082281;28;20462;-70
2023/11/20 08:24:24;;;;;;;8.03;7.93;;;10.50;99.90;;;;;;5083639;28;20478;-72
2023/11/20 08:26:51;;;;;;;8.40;8.30;;;10.50;99.90;;;;;;5085133;28;20454;-70
2023/11/20 08:29:19;;;;;;;7.80;7.70;;;10.60;99.90;;;;;;5076430;28;20531;-70
2023/11/20 08:31:47;;;;;;;8.00;7.90;;;10.70;99.90;;;;;;5085840;28;20462;-71
2023/11/20 08:34:13;;;;;;;7.70;7.60;;;10.80;99.90;;;;;;5081417;28;20463;-71
2023/11/20 08:36:41;;;;;;;8.03;7.93;;;10.80;99.90;;;;;;5090320;28;20466;-69
2023/11/20 08:39:12;;;;;;;8.33;8.23;;;10.80;99.90;;;;;;5079225;28;20545;-70
2023/11/20 08:41:39;;;;;;;8.60;8.50;;;10.90;99.90;;;;;;5087476;28;20809;-71
2023/11/20 08:44:07;;;;;;;8.20;8.10;;;11.00;99.90;;;;;;5085088;28;21283;-72
2023/11/20 08:46:34;;;;;;;8.40;8.30;;;11.00;99.90;;;;;;5086871;28;20465;-70
2023/11/20 08:49:06;;;;;;;9.80;9.60;;;11.10;99.90;;;;;;5076715;28;21112;-70
2023/11/20 08:51:33;;;;;;;11.30;11.00;;;11.20;99.90;;;;;;5067703;28;20467;-71
2023/11/20 08:54:00;;;;;;;11.70;11.30;;;11.10;99.90;;;;;;5073515;28;20583;-71
2023/11/20 08:56:27;;;;;;;11.30;11.00;;;10.90;99.90;;;;;;5075149;28;20566;-70
2023/11/20 08:58:54;;;;;;;11.07;10.77;;;10.90;99.90;;;;;;5074136;28;20490;-71
2023/11/20 09:01:31;;;;;;;16.00;15.17;;;10.90;99.90;;;;;;5078631;28;20500;-70
2023/11/20 09:03:58;;;;;;;14.83;14.13;;;10.80;99.90;;;;;;5075183;28;20946;-69
2023/11/20 09:06:27;;;;;;;14.47;13.77;;;10.70;99.90;;;;;;5071446;28;20460;-70
2023/11/20 09:08:53;;;;;;;14.70;14.00;;;10.50;99.90;;;;;;5075544;28;20467;-71
2023/11/20 09:11:20;;;;;;;14.07;13.47;;;10.60;99.90;;;;;;5075673;28;20475;-72
2023/11/20 09:13:48;;;;;;;14.23;13.63;;;10.70;99.90;;;;;;5076339;28;20469;-72
2023/11/20 09:16:15;;;;;;;13.90;13.30;;;10.60;99.90;;;;;;5074028;28;20483;-70
2023/11/20 09:18:42;;;;;;;13.70;13.20;;;10.70;99.90;;;;;;5068935;28;20498;-70
2023/11/20 09:21:09;;;;;;;13.93;13.33;;;10.70;99.90;;;;;;5061033;28;20456;-71
2023/11/20 09:23:38;;;;;;;13.50;13.00;;;10.80;99.90;;;;;;5073470;28;21031;-71
2023/11/20 09:26:11;;;;;;;13.40;12.90;;;10.80;99.90;;;;;;5076633;28;21050;-70
2023/11/20 09:28:38;;;;;;;13.17;12.67;;;10.80;99.90;;;;;;5074827;28;20795;-71
2023/11/20 09:31:05;;;;;;;13.27;12.77;;;10.80;99.90;;;;;;5073467;28;20962;-69
2023/11/20 09:33:32;;;;;;;12.47;12.07;;;10.80;99.90;;;;;;5077467;28;20608;-71
2023/11/20 09:36:00;;;;;;;12.43;12.03;;;10.80;99.90;;;;;;5073946;28;20471;-71
2023/11/20 09:38:28;;;;;;;12.43;12.03;;;10.90;99.90;;;;;;5074528;28;20885;-72
2023/11/20 09:40:58;;;;;;;11.53;11.23;;;10.90;99.90;;;;;;5072969;28;20620;-72
2023/11/20 09:43:29;;;;;;;12.10;11.70;;;10.90;99.90;;;;;;5077163;28;20469;-70
2023/11/20 09:45:59;;;;;;;11.80;11.40;;;10.90;99.90;;;;;;5077507;28;20548;-70
2023/11/20 09:48:29;;;;;;;11.30;11.00;;;10.90;99.90;;;;;;5077179;28;20836;-70
2023/11/20 09:50:57;;;;;;;11.97;11.57;;;10.90;99.90;;;;;;5071469;28;21035;-72
2023/11/20 09:53:31;;;;;;;11.70;11.30;;;10.90;99.90;;;;;;5071165;28;20864;-70
2023/11/20 09:56:00;;;;;;;11.33;11.03;;;10.80;99.90;;;;;;5080450;28;21011;-70
2023/11/20 09:58:29;;;;;;;11.90;11.50;;;10.80;99.90;;;;;;5073546;28;20487;-70
2023/11/20 10:01:01;;;;;;;11.50;11.20;;;10.80;99.90;;;;;;5072532;28;20996;-71
2023/11/20 10:03:28;;;;;;;11.30;11.00;;;10.80;99.90;;;;;;5075205;28;20466;-69
2023/11/20 10:05:59;;;;;;;11.20;10.90;;;10.80;99.90;;;;;;5075986;28;20936;-71
2023/11/20 10:08:27;;;;;;;11.40;11.10;;;10.80;99.90;;;;;;5076129;28;20474;-72
2023/11/20 10:10:53;;;;;;;11.97;11.57;;;10.80;99.90;;;;;;5071411;28;20706;-71
2023/11/20 10:13:22;;;;;;;12.37;11.97;;;10.80;99.90;;;;;;5074138;28;20758;-70
2023/11/20 10:15:49;;;;;;;12.07;11.67;;;10.90;99.90;;;;;;5075108;28;20476;-70
2023/11/20 10:18:17;;;;;;;12.13;11.73;;;10.90;99.90;;;;;;5071024;28;20462;-71
2023/11/20 10:20:48;;;;;;;11.83;11.43;;;10.90;99.90;;;;;;5076660;28;20474;-70
2023/11/20 10:23:16;;;;;;;11.20;10.90;;;10.90;99.90;;;;;;5075327;28;20462;-73
2023/11/20 10:25:44;;;;;;;11.80;11.40;;;11.10;99.90;;;;;;5073159;28;20492;-70
2023/11/20 10:28:14;;;;;;;11.60;11.30;;;11.10;99.90;;;;;;5068212;28;20462;-70
2023/11/20 10:30:45;;;;;;;11.83;11.43;;;11.00;99.90;;;;;;5075844;28;20579;-73
2023/11/20 10:33:18;;;;;;;12.13;11.73;;;11.10;99.90;;;;;;5076309;28;20464;-71
2023/11/20 10:35:45;;;;;;;12.03;11.63;;;11.10;99.90;;;;;;5076820;28;20942;-72
2023/11/20 10:38:12;;;;;;;12.23;11.83;;;11.20;99.90;;;;;;5071728;28;20465;-71
2023/11/20 10:40:40;;;;;;;12.33;11.93;;;11.20;99.90;;;;;;5075823;28;20488;-70
2023/11/20 10:43:09;;;;;;;12.33;11.93;;;11.20;99.90;;;;;;5071446;28;20541;-70
2023/11/20 10:45:37;;;;;;;12.17;11.77;;;11.20;99.90;;;;;;5074475;28;20470;-70
2023/11/20 10:48:08;;;;;;;11.47;11.17;;;11.20;99.90;;;;;;5070142;28;20463;-70
2023/11/20 10:50:36;;;;;;;12.17;11.77;;;11.40;99.90;;;;;;5074907;28;20529;-72
2023/11/20 10:53:07;;;;;;;11.77;11.47;;;11.30;99.90;;;;;;5075156;28;20527;-72
2023/11/20 10:55:41;;;;;;;11.63;11.33;;;11.50;99.90;;;;;;5073820;28;20469;-70
2023/11/20 10:58:11;;;;;;;11.27;10.97;;;11.60;99.90;;;;;;5069166;28;20478;-71
2023/11/20 11:00:40;;;;;;;11.07;10.77;;;11.70;99.90;;;;;;5074073;28;20579;-70
2023/11/20 11:03:11;;;;;;;11.30;11.00;;;11.60;99.90;;;;;;5071975;28;20468;-72
2023/11/20 11:05:39;;;;;;;11.40;11.10;;;11.50;99.90;;;;;;5074148;28;20494;-72
2023/11/20 11:08:11;;;;;;;11.30;11.00;;;11.40;99.90;;;;;;5074298;28;20546;-72
2023/11/20 11:10:40;;;;;;;11.40;11.10;;;11.40;99.90;;;;;;5079315;28;20466;-73
2023/11/20 11:13:08;;;;;;;11.27;10.97;;;11.30;99.90;;;;;;5075828;28;20838;-71
2023/11/20 11:15:36;;;;;;;11.20;10.90;;;11.20;99.90;;;;;;5078457;28;20514;-71
2023/11/20 11:18:04;;;;;;;11.63;11.33;;;11.20;99.90;;;;;;5077225;28;21075;-71
2023/11/20 11:20:42;;;;;;;11.17;10.87;;;11.30;99.90;;;;;;5078385;28;20491;-71
2023/11/20 11:23:11;;;;;;;11.00;10.70;;;11.40;99.90;;;;;;5077271;28;20466;-71
2023/11/20 11:25:41;;;;;;;10.80;10.50;;;11.40;99.90;;;;;;5078523;28;20478;-71
2023/11/20 11:28:13;;;;;;;11.30;11.00;;;11.60;99.90;;;;;;5075620;28;20485;-74
2023/11/20 11:30:44;;;;;;;11.67;11.37;;;11.60;99.90;;;;;;5077771;28;20463;-71
2023/11/20 11:33:41;;;;;;;11.70;11.40;;;11.50;99.90;;;;;;5073333;28;20467;-72
2023/11/20 11:36:28;;;;;;;11.67;11.37;;;11.50;99.90;;;;;;5052445;28;20467;-69
2023/11/20 11:39:03;;;;;;;11.67;11.37;;;11.40;99.90;;;;;;5075368;28;20470;-68
2023/11/20 11:41:44;;;;;;;11.20;10.90;;;11.40;99.90;;;;;;5076227;28;20957;-71
2023/11/20 11:44:18;;;;;;;11.33;11.03;;;11.30;99.90;;;;;;5073076;28;20466;-69
2023/11/20 11:46:50;;;;;;;11.47;11.17;;;11.40;99.90;;;;;;5079697;28;20791;-70
2023/11/20 11:49:21;;;;;;;11.33;11.03;;;11.50;99.90;;;;;;5078674;28;20545;-71
2023/11/20 11:51:54;;;;;;;11.17;10.87;;;11.50;99.90;;;;;;5076163;28;20520;-69
2023/11/20 11:54:24;;;;;;;11.00;10.70;;;11.50;99.90;;;;;;5076024;28;20523;-70
2023/11/20 11:57:01;;;;;;;10.87;10.57;;;11.50;99.90;;;;;;5076157;28;20982;-73
2023/11/20 11:59:36;;;;;;;11.30;11.00;;;11.50;99.90;;;;;;5078097;28;20494;-71
2023/11/20 12:02:04;;;;;;;12.30;11.90;;;11.50;99.90;;;;;;5072894;28;20478;-72
2023/11/20 12:05:00;;;;;;;11.63;11.33;;;11.70;99.90;;;;;;5076476;28;20489;-70
2023/11/20 12:07:50;;;;;;;11.43;11.13;;;11.80;99.90;;;;;;5076634;28;20460;-70
2023/11/20 12:10:18;;;;;;;11.60;11.30;;;11.90;99.90;;;;;;5076194;28;20470;-73
2023/11/20 12:13:11;;;;;;;11.87;11.57;;;12.00;99.90;;;;;;5078380;28;20563;-71
2023/11/20 12:15:40;;;;;;;11.60;11.30;;;12.10;99.90;;;;;;5073357;28;20576;-71
2023/11/20 12:18:11;;;;;;;12.60;12.20;;;12.20;99.90;;;;;;5072625;28;20475;-71
2023/11/20 12:20:38;;;;;;;11.47;11.17;;;12.20;99.90;;;;;;5076612;28;20489;-74
2023/11/20 12:23:10;;;;;;;11.70;11.40;;;12.20;99.90;;;;;;5074108;28;20842;-71
2023/11/20 12:25:38;;;;;;;12.17;11.83;;;12.30;99.90;;;;;;5077378;28;20487;-71
2023/11/20 12:28:07;;;;;;;12.50;12.10;;;12.60;99.90;;;;;;5074440;28;21334;-71
2023/11/20 12:30:35;;;;;;;13.20;12.80;;;12.90;99.90;;;;;;5073878;28;20475;-71
2023/11/20 12:33:02;;;;;;;13.10;12.70;;;13.20;99.90;;;;;;5079573;28;20495;-73
2023/11/20 12:35:31;;;;;;;13.00;12.60;;;13.00;99.90;;;;;;5076179;28;20475;-71
2023/11/20 12:37:59;;;;;;;12.73;12.33;;;12.60;99.90;;;;;;5077726;28;20553;-71
2023/11/20 12:40:27;;;;;;;12.80;12.40;;;12.80;99.90;;;;;;5071902;28;21218;-71
2023/11/20 12:42:54;;;;;;;13.10;12.70;;;12.90;99.90;;;;;;5077664;28;20455;-74
2023/11/20 12:45:21;;;;;;;12.97;12.57;;;13.10;99.90;;;;;;5076316;28;20997;-72